Aérodrome :
LOGIN :

S'inscrire | Disclaimer

   EN    FR    IT 

 










Légende :    VFR   VFR Marginal   IFR   IFR Intensif   IFR Très Intensif
Visi : 
Plafond : 
>= 8 km
>= 3000ft
5 à 8 km
1000 à 3000 ft
1500m à 5 km
500 à 1000 ft
800 à 1500m
200 à 500 ft
< 800m
< 200 ft
Symboles :   Orages  Brouillard  Fortes neiges  Fortes précipitations  Vent > 20 kt
SIGMETs :   Divers  Orages  Givrage  Turbulence  Onde Orograph.  Cendres Volcan.







- Altitude de l'aérodrome : 278 ft
- Code IATA : RJK


LDRI - Rijeka

DERNIER METAR :
  • 250630Z 17010KT 150V240 9999 BKN020 14/09 Q1015

METARs EXPIRÉS :
  • 250600Z 17010KT 150V240 9999 BKN020 14/09 Q1015
  • 250530Z 17011KT 150V240 9999 BKN020 13/09 Q1015
  • 250500Z 18010KT 150V240 9999 BKN020 13/09 Q1015
  • 250430Z 17009KT 120V210 9999 BKN020 13/09 Q1015
  • 250400Z 14006KT 120V210 9999 BKN020 12/09 Q1015

TAF TAF LDRI
Valide du 25 à 06h jusqu'au 26 à 06h UTC


250525Z 2506/2606 18010KT 9999 SCT020 TX16/2513Z TN11/2604Z
TEMPO 2506/2512 RA BKN020
PROB30
TEMPO 2506/2512 SHRA FEW020TCU
Pas de NOTAMs connus pour ce terrain.



MET'MAP, la Météo Aéronautique d'un coup d'oeil ! - Copyright ORBIFLY Décembre 2007 - Disclaimer

ORBIFLY MET'MAP TEAM :

Programmation & Développement : Alexandra Zaïnal
Conception & Développement : Baudouin d'Aumeries
Co-Programmation & Développement : Marc-Olivier Méhu
Soutien technique & logistique : Manuel Goepfert

Contact : metmap@orbifly.com




SOURCES & CREDITS :

   NOAA